Time;durP1;ratioP1;P1;durP2;ratioP2;P2;SDS_P1;SDS_P2;PMS_P1;PMS_P2;Temp;Humidity;BMP_temperature;BMP_pressure;BME280_temperature;BME280_humidity;BME280_pressure;Samples;Min_cycle;Max_cycle;Signal;HPM_P1;HPM_P2
2022/03/04 00:02:43;;;;;;;37.88;15.15;;;;;;;;;;8400963;28;20059;-81
2022/03/04 00:06:47;;;;;;;38.08;15.07;;;;;;;;;;8399041;28;20060;-81
2022/03/04 00:10:49;;;;;;;34.13;14.27;;;;;;;;;;8398312;28;20098;-81
2022/03/04 00:14:52;;;;;;;30.77;14.00;;;;;;;;;;8398000;28;20044;-80
2022/03/04 00:19:07;;;;;;;37.15;14.90;;;;;;;;;;8398462;28;20054;-80
2022/03/04 00:23:11;;;;;;;36.90;14.25;;;;;;;;;;8398080;28;20045;-80
2022/03/04 00:27:14;;;;;;;41.42;16.25;;;;;;;;;;8397572;28;20098;-80
2022/03/04 00:31:16;;;;;;;40.85;15.80;;;;;;;;;;8397617;28;20076;-81
2022/03/04 00:35:19;;;;;;;40.45;16.70;;;;;;;;;;8397596;28;20044;-81
2022/03/04 00:39:23;;;;;;;44.08;17.27;;;;;;;;;;8397705;28;20102;-81
2022/03/04 00:43:26;;;;;;;36.42;17.00;;;;;;;;;;8398095;28;20488;-81
2022/03/04 00:47:29;;;;;;;49.92;17.58;;;;;;;;;;8398146;28;20400;-81
2022/03/04 00:51:32;;;;;;;42.22;17.23;;;;;;;;;;8397200;28;20094;-81
2022/03/04 00:55:38;;;;;;;39.45;16.30;;;;;;;;;;8398101;28;20075;-80
2022/03/04 00:59:40;;;;;;;41.65;17.08;;;;;;;;;;8397460;28;20048;-80
2022/03/04 01:03:43;;;;;;;43.28;18.02;;;;;;;;;;8397617;28;20565;-81
2022/03/04 01:07:46;;;;;;;40.22;17.83;;;;;;;;;;8397322;28;20064;-80
2022/03/04 01:11:49;;;;;;;38.60;16.55;;;;;;;;;;8397500;28;20476;-81
2022/03/04 01:15:54;;;;;;;40.88;18.35;;;;;;;;;;8402758;28;20127;-81
2022/03/04 01:19:57;;;;;;;42.60;17.98;;;;;;;;;;8403930;28;20052;-81
2022/03/04 01:24:00;;;;;;;43.25;17.83;;;;;;;;;;8403838;28;20464;-81
2022/03/04 01:28:04;;;;;;;48.78;19.60;;;;;;;;;;8403768;28;20143;-81
2022/03/04 01:32:07;;;;;;;41.33;17.35;;;;;;;;;;8403321;28;20401;-81
2022/03/04 01:36:10;;;;;;;44.20;18.45;;;;;;;;;;8403246;28;20094;-81
2022/03/04 01:40:13;;;;;;;49.25;18.35;;;;;;;;;;8387890;28;20047;-80
2022/03/04 01:44:17;;;;;;;50.58;18.98;;;;;;;;;;8384175;28;20349;-81
2022/03/04 01:48:21;;;;;;;54.63;20.42;;;;;;;;;;8380870;28;20045;-80
2022/03/04 01:52:23;;;;;;;46.17;20.33;;;;;;;;;;8386344;28;20606;-81
2022/03/04 01:56:26;;;;;;;43.15;18.42;;;;;;;;;;8353432;28;20061;-81
2022/03/04 02:00:30;;;;;;;49.58;20.13;;;;;;;;;;8368192;28;20037;-81
2022/03/04 02:04:33;;;;;;;55.30;22.05;;;;;;;;;;8387187;28;20059;-80
2022/03/04 02:08:35;;;;;;;52.78;20.27;;;;;;;;;;8381647;28;20533;-80
2022/03/04 02:12:38;;;;;;;52.10;20.05;;;;;;;;;;8390167;28;20083;-80
2022/03/04 02:16:45;;;;;;;46.05;19.13;;;;;;;;;;8402756;28;20056;-81
2022/03/04 02:20:50;;;;;;;51.25;20.02;;;;;;;;;;8403241;28;20044;-81
2022/03/04 02:24:54;;;;;;;49.85;19.85;;;;;;;;;;8402361;28;20537;-81
2022/03/04 02:28:57;;;;;;;44.70;19.67;;;;;;;;;;8402475;28;20102;-81
2022/03/04 02:32:59;;;;;;;53.50;20.42;;;;;;;;;;8403948;28;20550;-81
2022/03/04 02:37:02;;;;;;;52.78;22.48;;;;;;;;;;8404397;28;20045;-80
2022/03/04 02:41:06;;;;;;;59.45;23.15;;;;;;;;;;8403673;28;20052;-81
2022/03/04 02:45:09;;;;;;;53.78;22.13;;;;;;;;;;8372038;28;20053;-81
2022/03/04 02:49:12;;;;;;;54.22;22.45;;;;;;;;;;8370067;28;20488;-80
2022/03/04 02:53:15;;;;;;;51.22;21.92;;;;;;;;;;8384202;28;20094;-81
2022/03/04 02:57:19;;;;;;;58.42;22.23;;;;;;;;;;8402889;28;20093;-81
2022/03/04 03:01:22;;;;;;;50.63;22.80;;;;;;;;;;8402318;28;20051;-81
2022/03/04 03:05:24;;;;;;;55.20;23.02;;;;;;;;;;8402069;28;20063;-81
2022/03/04 03:09:27;;;;;;;58.13;23.55;;;;;;;;;;8401181;28;20052;-81
2022/03/04 03:13:31;;;;;;;66.80;23.85;;;;;;;;;;8400454;28;20067;-82
2022/03/04 03:17:34;;;;;;;57.17;24.00;;;;;;;;;;8399887;28;20044;-81
2022/03/04 03:21:36;;;;;;;60.20;25.35;;;;;;;;;;8400075;28;20045;-81
2022/03/04 03:25:39;;;;;;;65.75;26.13;;;;;;;;;;8401100;28;20400;-81
2022/03/04 03:29:43;;;;;;;61.40;24.05;;;;;;;;;;8401177;28;20048;-81
2022/03/04 03:33:45;;;;;;;60.20;23.75;;;;;;;;;;8400481;28;20517;-81
2022/03/04 03:37:48;;;;;;;59.15;22.33;;;;;;;;;;8400706;28;20101;-81
2022/03/04 03:41:54;;;;;;;64.50;24.42;;;;;;;;;;8400272;28;20063;-81
2022/03/04 03:45:58;;;;;;;68.40;27.40;;;;;;;;;;8400430;28;20114;-81
2022/03/04 03:50:01;;;;;;;64.82;25.45;;;;;;;;;;8400347;28;20045;-81
2022/03/04 03:54:03;;;;;;;72.15;27.58;;;;;;;;;;8399799;28;20068;-81
2022/03/04 03:58:06;;;;;;;56.63;24.70;;;;;;;;;;8399664;28;20349;-81
2022/03/04 04:02:10;;;;;;;67.07;25.02;;;;;;;;;;8399604;28;20048;-81
2022/03/04 04:06:13;;;;;;;58.83;23.13;;;;;;;;;;8399581;28;20361;-85
2022/03/04 04:10:15;;;;;;;66.68;26.05;;;;;;;;;;8398193;28;20114;-80
2022/03/04 04:14:18;;;;;;;57.08;24.50;;;;;;;;;;8397648;28;20052;-81
2022/03/04 04:18:22;;;;;;;63.47;27.70;;;;;;;;;;8398101;28;20128;-80
2022/03/04 04:22:25;;;;;;;62.47;25.45;;;;;;;;;;8397631;28;20044;-80
2022/03/04 04:26:27;;;;;;;61.25;23.80;;;;;;;;;;8399099;28;20057;-80
2022/03/04 04:30:31;;;;;;;70.82;27.50;;;;;;;;;;8398940;28;20376;-81
2022/03/04 04:34:35;;;;;;;60.53;24.63;;;;;;;;;;8399451;28;20044;-80
2022/03/04 04:38:38;;;;;;;59.55;22.98;;;;;;;;;;8398887;28;20056;-80
2022/03/04 04:42:40;;;;;;;83.97;26.42;;;;;;;;;;8397173;28;20044;-84
2022/03/04 04:46:43;;;;;;;62.00;22.95;;;;;;;;;;8397350;28;20060;-81
2022/03/04 04:50:47;;;;;;;73.10;26.83;;;;;;;;;;8396901;28;20057;-81
2022/03/04 04:54:49;;;;;;;77.22;28.65;;;;;;;;;;8397852;28;20052;-80
2022/03/04 04:58:52;;;;;;;108.18;32.50;;;;;;;;;;8397164;28;20063;-81
2022/03/04 05:02:55;;;;;;;131.13;37.72;;;;;;;;;;8396980;28;20052;-80
2022/03/04 05:06:58;;;;;;;85.70;31.05;;;;;;;;;;8396751;28;20040;-81
2022/03/04 05:11:02;;;;;;;65.93;27.23;;;;;;;;;;8397271;28;20051;-80
2022/03/04 05:15:05;;;;;;;75.13;28.70;;;;;;;;;;8398044;28;20542;-80
2022/03/04 05:19:07;;;;;;;71.22;28.65;;;;;;;;;;8397768;28;20045;-80
2022/03/04 05:23:58;;;;;;;78.43;29.38;;;;;;;;;;8398976;28;20051;-80
2022/03/04 05:27:35;;;;;;;75.10;28.45;;;;;;;;;;8397149;28;20044;-80
2022/03/04 05:31:39;;;;;;;92.15;35.95;;;;;;;;;;8397248;28;20114;-81
2022/03/04 05:35:41;;;;;;;83.38;29.75;;;;;;;;;;8396674;28;20064;-81
2022/03/04 05:39:45;;;;;;;85.18;30.92;;;;;;;;;;8397521;28;20472;-80
2022/03/04 05:43:49;;;;;;;76.97;29.02;;;;;;;;;;8396549;28;20049;-81
2022/03/04 05:47:51;;;;;;;90.78;32.10;;;;;;;;;;8396357;28;20502;-80
2022/03/04 05:51:54;;;;;;;95.30;33.70;;;;;;;;;;8395848;28;20119;-81
2022/03/04 05:55:58;;;;;;;84.85;32.58;;;;;;;;;;8396377;28;20041;-81
2022/03/04 06:00:01;;;;;;;98.30;35.03;;;;;;;;;;8398673;28;20048;-80
2022/03/04 06:04:04;;;;;;;90.45;34.05;;;;;;;;;;8402833;28;20064;-80
2022/03/04 06:08:07;;;;;;;76.05;29.92;;;;;;;;;;8402544;28;20395;-80
2022/03/04 06:12:11;;;;;;;68.18;26.25;;;;;;;;;;8401033;28;20056;-80
2022/03/04 06:16:16;;;;;;;60.40;23.83;;;;;;;;;;8352523;28;20049;-80
2022/03/04 06:20:20;;;;;;;65.38;26.92;;;;;;;;;;8364095;28;20449;-80
2022/03/04 06:24:27;;;;;;;59.92;23.13;;;;;;;;;;8358610;28;20044;-81
2022/03/04 06:28:35;;;;;;;57.08;23.90;;;;;;;;;;8395601;28;20090;-80
2022/03/04 06:32:45;;;;;;;57.15;24.30;;;;;;;;;;8403286;28;20069;-80
2022/03/04 06:36:51;;;;;;;55.38;22.30;;;;;;;;;;8379947;28;20150;-81
2022/03/04 06:40:54;;;;;;;55.25;23.23;;;;;;;;;;8394277;28;20041;-81
2022/03/04 06:44:58;;;;;;;49.13;21.10;;;;;;;;;;8349614;28;20068;-81
2022/03/04 06:49:00;;;;;;;47.42;19.08;;;;;;;;;;8338411;28;20061;-81
2022/03/04 06:53:04;;;;;;;48.17;21.15;;;;;;;;;;8363400;28;20109;-81
2022/03/04 06:57:07;;;;;;;54.30;21.45;;;;;;;;;;8402401;28;20049;-81
2022/03/04 07:01:11;;;;;;;46.53;19.75;;;;;;;;;;8402971;28;20463;-81
2022/03/04 07:05:13;;;;;;;47.80;20.63;;;;;;;;;;8404091;28;20052;-85
2022/03/04 07:09:16;;;;;;;43.30;19.00;;;;;;;;;;8403392;28;20052;-81
2022/03/04 07:13:21;;;;;;;49.95;22.30;;;;;;;;;;8370278;28;20049;-81
2022/03/04 07:17:27;;;;;;;50.22;21.50;;;;;;;;;;8369647;28;20048;-81
2022/03/04 07:21:35;;;;;;;51.85;22.63;;;;;;;;;;8364699;28;20037;-81
2022/03/04 07:25:38;;;;;;;59.67;26.85;;;;;;;;;;8354844;28;20049;-80
2022/03/04 07:29:45;;;;;;;58.50;24.38;;;;;;;;;;8363608;28;20045;-80
2022/03/04 07:33:52;;;;;;;59.22;25.20;;;;;;;;;;8365238;28;20049;-81
2022/03/04 07:38:03;;;;;;;72.47;31.33;;;;;;;;;;8343135;28;20071;-81
2022/03/04 07:42:09;;;;;;;85.80;38.75;;;;;;;;;;8361769;28;20144;-81
2022/03/04 07:46:14;;;;;;;88.60;39.72;;;;;;;;;;8354347;28;20037;-81
2022/03/04 07:50:22;;;;;;;95.53;41.33;;;;;;;;;;8359911;28;20477;-81
2022/03/04 07:54:33;;;;;;;104.45;45.85;;;;;;;;;;8343282;28;20477;-81
2022/03/04 07:58:37;;;;;;;99.75;42.33;;;;;;;;;;8354494;28;20084;-81
2022/03/04 08:02:42;;;;;;;108.50;47.15;;;;;;;;;;8361863;28;20056;-81
2022/03/04 08:06:47;;;;;;;81.47;36.22;;;;;;;;;;8361233;28;20084;-82
2022/03/04 08:10:53;;;;;;;79.25;34.72;;;;;;;;;;8347911;28;20046;-81
2022/03/04 08:14:59;;;;;;;62.65;28.45;;;;;;;;;;8370961;28;20041;-80
2022/03/04 08:19:06;;;;;;;71.10;29.58;;;;;;;;;;8349094;28;20077;-81
2022/03/04 08:23:19;;;;;;;79.32;33.53;;;;;;;;;;8348961;28;20106;-80
2022/03/04 08:27:44;;;;;;;75.38;29.90;;;;;;;;;;8349436;28;20048;-81
2022/03/04 08:31:57;;;;;;;74.93;31.15;;;;;;;;;;8357882;28;20144;-80
2022/03/04 08:42:03;;;;;;;87.50;31.80;;;;;;;;;;8358618;28;20068;-80
2022/03/04 08:46:06;;;;;;;91.53;34.15;;;;;;;;;;8359011;28;20053;-80
2022/03/04 08:50:12;;;;;;;74.32;27.95;;;;;;;;;;8355139;28;20044;-80
2022/03/04 08:54:17;;;;;;;71.70;29.95;;;;;;;;;;8349937;28;20049;-81
2022/03/04 09:03:47;;;;;;;75.53;27.80;;;;;;;;;;8354715;28;20144;-81
2022/03/04 09:08:00;;;;;;;81.23;30.67;;;;;;;;;;8339211;28;20052;-81
2022/03/04 09:12:08;;;;;;;77.97;28.73;;;;;;;;;;8367573;28;20045;-81
2022/03/04 09:16:25;;;;;;;69.18;26.73;;;;;;;;;;8367494;28;20132;-81
2022/03/04 09:21:40;;;;;;;70.95;26.67;;;;;;;;;;8370219;28;20052;-81
2022/03/04 09:25:48;;;;;;;72.80;24.85;;;;;;;;;;8354931;28;20053;-81
2022/03/04 09:29:54;;;;;;;88.45;31.50;;;;;;;;;;8366280;28;20064;-81
2022/03/04 09:34:06;;;;;;;88.78;31.83;;;;;;;;;;8370142;28;20128;-81
2022/03/04 09:38:10;;;;;;;81.65;30.63;;;;;;;;;;8371942;28;20076;-81
2022/03/04 09:42:14;;;;;;;77.28;29.13;;;;;;;;;;8371058;28;20051;-82
2022/03/04 09:46:21;;;;;;;83.85;28.58;;;;;;;;;;8373057;28;20139;-80
2022/03/04 09:50:28;;;;;;;79.43;29.58;;;;;;;;;;8376010;28;20045;-81
2022/03/04 09:54:32;;;;;;;77.63;28.55;;;;;;;;;;8376196;28;20078;-81
2022/03/04 09:58:37;;;;;;;96.90;31.60;;;;;;;;;;8378452;28;20480;-82
2022/03/04 10:02:41;;;;;;;89.53;30.58;;;;;;;;;;8371220;28;20104;-81
2022/03/04 10:06:50;;;;;;;77.78;24.58;;;;;;;;;;8343522;28;20459;-80
2022/03/04 10:10:55;;;;;;;82.90;27.30;;;;;;;;;;8344579;28;20053;-80
2022/03/04 10:15:01;;;;;;;76.40;27.60;;;;;;;;;;8341682;28;20052;-80
2022/03/04 10:19:13;;;;;;;71.57;26.67;;;;;;;;;;8337549;28;20061;-80
2022/03/04 10:23:20;;;;;;;72.97;23.83;;;;;;;;;;8334056;28;20041;-81
2022/03/04 10:27:23;;;;;;;73.35;27.17;;;;;;;;;;8334454;28;20057;-80
2022/03/04 10:31:27;;;;;;;67.90;24.98;;;;;;;;;;8334298;28;20413;-81
2022/03/04 10:35:30;;;;;;;67.32;23.23;;;;;;;;;;8334130;28;20073;-81
2022/03/04 10:39:35;;;;;;;55.42;22.73;;;;;;;;;;8334212;28;20500;-81
2022/03/04 10:43:41;;;;;;;64.18;24.70;;;;;;;;;;8353549;28;20045;-81
2022/03/04 10:47:54;;;;;;;52.80;21.88;;;;;;;;;;8365717;28;20060;-80
2022/03/04 10:52:07;;;;;;;45.75;17.13;;;;;;;;;;8365872;28;20638;-81
2022/03/04 10:56:16;;;;;;;49.75;18.40;;;;;;;;;;8345834;28;20045;-81
2022/03/04 11:00:27;;;;;;;41.33;16.80;;;;;;;;;;8353954;28;20045;-80
2022/03/04 11:04:34;;;;;;;31.58;14.23;;;;;;;;;;8364798;28;20072;-81
2022/03/04 11:08:42;;;;;;;34.90;14.93;;;;;;;;;;8365523;28;20053;-80
2022/03/04 11:12:54;;;;;;;41.75;17.23;;;;;;;;;;8366022;28;20053;-80
2022/03/04 11:17:06;;;;;;;34.53;16.30;;;;;;;;;;8359545;28;20049;-73
2022/03/04 11:21:15;;;;;;;42.55;17.48;;;;;;;;;;8356981;28;20045;-74
2022/03/04 11:25:22;;;;;;;33.10;14.27;;;;;;;;;;8359904;28;20041;-74
2022/03/04 11:29:36;;;;;;;30.98;12.80;;;;;;;;;;8363654;28;20064;-74
2022/03/04 11:33:44;;;;;;;30.33;13.13;;;;;;;;;;8349338;28;20136;-75
2022/03/04 11:37:51;;;;;;;31.83;14.15;;;;;;;;;;8342671;28;20052;-74
2022/03/04 11:42:11;;;;;;;29.23;12.07;;;;;;;;;;8339086;28;20045;-74
2022/03/04 11:46:27;;;;;;;25.35;11.20;;;;;;;;;;8359671;28;20539;-74
2022/03/04 11:50:41;;;;;;;30.95;13.82;;;;;;;;;;8358659;28;20080;-74
2022/03/04 11:55:16;;;;;;;24.00;11.73;;;;;;;;;;8352947;28;20447;-74
2022/03/04 11:59:25;;;;;;;34.30;14.10;;;;;;;;;;8353854;28;20095;-74
2022/03/04 12:04:08;;;;;;;29.55;13.48;;;;;;;;;;8337235;28;20049;-74
2022/03/04 12:08:46;;;;;;;17.85;8.90;;;;;;;;;;8340289;28;20041;-74
2022/03/04 12:13:06;;;;;;;29.65;12.32;;;;;;;;;;8360638;28;20484;-75
2022/03/04 12:17:14;;;;;;;37.17;16.90;;;;;;;;;;8349826;28;20174;-75
2022/03/04 12:21:46;;;;;;;35.67;15.85;;;;;;;;;;8358493;28;20049;-74
2022/03/04 12:26:22;;;;;;;36.28;14.73;;;;;;;;;;8348583;28;20503;-74
2022/03/04 12:30:27;;;;;;;31.40;14.20;;;;;;;;;;8349380;28;20053;-74
2022/03/04 12:34:38;;;;;;;34.30;14.20;;;;;;;;;;8318641;28;20042;-74
2022/03/04 12:38:46;;;;;;;34.42;14.82;;;;;;;;;;8329678;28;20533;-74
2022/03/04 12:43:02;;;;;;;30.08;13.32;;;;;;;;;;8317969;28;20053;-74
2022/03/04 12:47:09;;;;;;;29.17;13.82;;;;;;;;;;8315453;28;20057;-74
2022/03/04 12:51:31;;;;;;;31.38;15.40;;;;;;;;;;8295908;28;20054;-74
2022/03/04 12:55:38;;;;;;;36.63;14.93;;;;;;;;;;8295497;28;20073;-75
2022/03/04 12:59:47;;;;;;;32.10;12.85;;;;;;;;;;8295560;28;20061;-74
2022/03/04 13:03:54;;;;;;;28.23;14.05;;;;;;;;;;8297350;28;20148;-74
2022/03/04 13:07:58;;;;;;;36.78;16.17;;;;;;;;;;8297368;28;20046;-74
2022/03/04 13:12:08;;;;;;;44.50;20.23;;;;;;;;;;8312336;28;20045;-78
2022/03/04 13:16:13;;;;;;;46.55;18.65;;;;;;;;;;8310321;28;20048;-74
2022/03/04 13:20:16;;;;;;;39.70;17.67;;;;;;;;;;8315407;28;20049;-74
2022/03/04 13:24:21;;;;;;;48.10;19.60;;;;;;;;;;8319262;28;20041;-75
2022/03/04 13:28:27;;;;;;;38.55;18.42;;;;;;;;;;8312829;28;20500;-74
2022/03/04 13:32:34;;;;;;;33.65;14.65;;;;;;;;;;8313113;28;20056;-74
2022/03/04 13:36:43;;;;;;;24.60;13.32;;;;;;;;;;8334644;28;20505;-75
2022/03/04 13:40:49;;;;;;;27.90;11.15;;;;;;;;;;8335132;28;20060;-75
2022/03/04 13:45:00;;;;;;;25.08;11.55;;;;;;;;;;8317794;28;20049;-75
2022/03/04 13:49:09;;;;;;;21.30;10.18;;;;;;;;;;8333665;28;20099;-75
2022/03/04 13:53:19;;;;;;;20.08;9.18;;;;;;;;;;8335450;28;20111;-74
2022/03/04 13:57:37;;;;;;;24.67;11.10;;;;;;;;;;8328953;28;20046;-75
2022/03/04 14:01:46;;;;;;;22.00;10.15;;;;;;;;;;8332531;28;20049;-75
2022/03/04 14:05:59;;;;;;;24.65;10.10;;;;;;;;;;8333927;28;20049;-75
2022/03/04 14:10:11;;;;;;;18.60;9.88;;;;;;;;;;8333586;28;20053;-75
2022/03/04 14:14:15;;;;;;;21.93;10.63;;;;;;;;;;8333819;28;20132;-75
2022/03/04 14:18:26;;;;;;;20.25;9.48;;;;;;;;;;8312502;28;20042;-74
2022/03/04 14:22:31;;;;;;;22.13;10.43;;;;;;;;;;8312317;28;20084;-74
2022/03/04 14:26:34;;;;;;;17.55;8.43;;;;;;;;;;8310793;28;20492;-74
2022/03/04 14:30:40;;;;;;;26.55;12.55;;;;;;;;;;8303591;28;20132;-74
2022/03/04 14:34:46;;;;;;;24.35;11.63;;;;;;;;;;8284602;28;20100;-74
2022/03/04 14:38:51;;;;;;;26.60;12.23;;;;;;;;;;8273309;28;20043;-73
2022/03/04 14:42:56;;;;;;;47.03;19.23;;;;;;;;;;8279591;28;20065;-73
2022/03/04 14:47:03;;;;;;;29.73;14.52;;;;;;;;;;8274559;28;20045;-77
2022/03/04 14:51:08;;;;;;;77.90;32.05;;;;;;;;;;8283020;28;20049;-74
2022/03/04 14:55:16;;;;;;;56.75;25.23;;;;;;;;;;8278830;28;20050;-74
2022/03/04 14:59:21;;;;;;;53.88;25.17;;;;;;;;;;8284850;28;20046;-74
2022/03/04 15:03:31;;;;;;;55.95;22.77;;;;;;;;;;8289432;28;20581;-75
2022/03/04 15:07:50;;;;;;;48.40;22.07;;;;;;;;;;8290290;28;20033;-74
2022/03/04 15:12:01;;;;;;;75.28;32.42;;;;;;;;;;8294017;28;20038;-76
2022/03/04 15:16:31;;;;;;;126.65;47.95;;;;;;;;;;8297357;28;20603;-74
2022/03/04 15:21:09;;;;;;;95.25;38.10;;;;;;;;;;8294748;28;20485;-74
2022/03/04 15:25:40;;;;;;;88.95;32.05;;;;;;;;;;8291543;28;20047;-74
2022/03/04 15:30:06;;;;;;;57.17;23.30;;;;;;;;;;8289383;28;20104;-74
2022/03/04 15:34:54;;;;;;;52.03;20.08;;;;;;;;;;8319091;28;20060;-73
2022/03/04 15:39:14;;;;;;;38.50;17.00;;;;;;;;;;8329304;28;20045;-73
2022/03/04 15:43:32;;;;;;;37.78;15.65;;;;;;;;;;8324910;28;20094;-74
2022/03/04 15:47:45;;;;;;;32.47;15.35;;;;;;;;;;8317316;28;20058;-73
2022/03/04 15:52:10;;;;;;;33.65;15.00;;;;;;;;;;8315850;28;20082;-74
2022/03/04 15:56:15;;;;;;;48.40;16.83;;;;;;;;;;8322668;28;20064;-73
2022/03/04 16:00:26;;;;;;;33.70;14.60;;;;;;;;;;8324823;28;20080;-73
2022/03/04 16:04:34;;;;;;;33.00;14.97;;;;;;;;;;8306984;28;20062;-74
2022/03/04 16:08:38;;;;;;;38.17;19.02;;;;;;;;;;8309843;28;20803;-73
2022/03/04 16:12:43;;;;;;;26.35;13.15;;;;;;;;;;8309146;28;20053;-73
2022/03/04 16:16:49;;;;;;;24.58;12.35;;;;;;;;;;8307335;28;20065;-73
2022/03/04 16:21:02;;;;;;;26.00;13.35;;;;;;;;;;8301824;28;20058;-74
2022/03/04 16:25:36;;;;;;;35.30;14.98;;;;;;;;;;8298177;28;20049;-74
2022/03/04 16:29:52;;;;;;;41.38;17.50;;;;;;;;;;8310498;28;20456;-73
2022/03/04 16:34:14;;;;;;;40.83;16.10;;;;;;;;;;8307722;28;20049;-74
2022/03/04 16:43:21;;;;;;;35.53;14.48;;;;;;;;;;8314006;28;20131;-75
2022/03/04 16:47:27;;;;;;;41.80;16.17;;;;;;;;;;8314070;28;20045;-75
2022/03/04 16:51:34;;;;;;;37.42;17.00;;;;;;;;;;8322801;28;20069;-74
2022/03/04 16:55:40;;;;;;;38.35;16.13;;;;;;;;;;8318510;28;20049;-74
2022/03/04 16:59:46;;;;;;;33.72;14.75;;;;;;;;;;8320000;28;20041;-74
2022/03/04 17:03:50;;;;;;;40.92;18.65;;;;;;;;;;8322647;28;20132;-74
2022/03/04 17:07:56;;;;;;;42.65;19.30;;;;;;;;;;8326530;28;20072;-74
2022/03/04 17:12:03;;;;;;;44.90;21.15;;;;;;;;;;8327425;28;20053;-74
2022/03/04 17:16:12;;;;;;;43.05;19.08;;;;;;;;;;8316779;28;20185;-74
2022/03/04 17:20:16;;;;;;;42.55;17.67;;;;;;;;;;8305558;28;20057;-74
2022/03/04 17:24:22;;;;;;;41.63;18.23;;;;;;;;;;8301045;28;20125;-74
2022/03/04 17:28:30;;;;;;;40.13;16.25;;;;;;;;;;8305556;28;20054;-74
2022/03/04 17:32:41;;;;;;;38.85;16.80;;;;;;;;;;8307431;28;20050;-75
2022/03/04 17:36:54;;;;;;;36.57;17.37;;;;;;;;;;8307929;28;20058;-75
2022/03/04 17:41:04;;;;;;;38.83;17.05;;;;;;;;;;8303420;28;20065;-74
2022/03/04 17:45:10;;;;;;;41.05;17.75;;;;;;;;;;8327042;28;20558;-74
2022/03/04 17:49:15;;;;;;;57.17;23.58;;;;;;;;;;8310110;28;20077;-74
2022/03/04 17:53:18;;;;;;;65.22;27.80;;;;;;;;;;8316125;28;20389;-74
2022/03/04 17:57:23;;;;;;;68.60;26.98;;;;;;;;;;8327443;28;20060;-74
2022/03/04 18:01:28;;;;;;;81.18;33.33;;;;;;;;;;8304664;28;20054;-74
2022/03/04 18:05:31;;;;;;;65.75;27.58;;;;;;;;;;8310634;28;20144;-74
2022/03/04 18:09:34;;;;;;;85.10;33.22;;;;;;;;;;8313319;28;20061;-74
2022/03/04 18:13:38;;;;;;;88.22;36.72;;;;;;;;;;8312962;28;20042;-75
2022/03/04 18:17:45;;;;;;;76.35;31.83;;;;;;;;;;8307245;28;20120;-74
2022/03/04 18:21:51;;;;;;;73.22;31.73;;;;;;;;;;8307500;28;20512;-74
2022/03/04 18:25:54;;;;;;;85.30;31.33;;;;;;;;;;8323693;28;20050;-75
2022/03/04 18:29:57;;;;;;;75.28;30.73;;;;;;;;;;8320019;28;20049;-75
2022/03/04 18:34:01;;;;;;;112.45;36.42;;;;;;;;;;8309994;28;20148;-75
2022/03/04 18:42:33;;;;;;;67.47;26.60;;;;;;;;;;8312740;28;20073;-76
2022/03/04 18:46:39;;;;;;;82.85;30.73;;;;;;;;;;8327257;28;20069;-75
2022/03/04 18:50:47;;;;;;;81.57;30.33;;;;;;;;;;8335039;28;20561;-74
2022/03/04 18:54:53;;;;;;;83.35;30.75;;;;;;;;;;8366795;28;20419;-74
2022/03/04 18:59:02;;;;;;;104.15;35.30;;;;;;;;;;8318376;28;20497;-74
2022/03/04 19:03:27;;;;;;;101.80;36.57;;;;;;;;;;8325986;28;20084;-74
2022/03/04 19:07:43;;;;;;;91.45;33.28;;;;;;;;;;8309701;28;20120;-74
2022/03/04 19:11:48;;;;;;;91.45;33.67;;;;;;;;;;8320668;28;20059;-74
2022/03/04 19:15:57;;;;;;;111.72;39.50;;;;;;;;;;8317509;28;20469;-75
2022/03/04 19:20:06;;;;;;;122.30;42.00;;;;;;;;;;8315925;28;20038;-75
2022/03/04 19:29:23;;;;;;;116.38;40.67;;;;;;;;;;8313790;28;20587;-74
2022/03/04 19:33:29;;;;;;;116.07;42.38;;;;;;;;;;8322038;28;20053;-74
2022/03/04 19:38:26;;;;;;;106.05;40.38;;;;;;;;;;8323804;28;20053;-75
2022/03/04 19:42:49;;;;;;;113.90;40.53;;;;;;;;;;8314654;28;20053;-76
2022/03/04 19:47:32;;;;;;;137.40;45.53;;;;;;;;;;8332000;28;20042;-74
2022/03/04 19:57:07;;;;;;;141.20;51.67;;;;;;;;;;8326446;28;20473;-74
2022/03/04 20:01:12;;;;;;;131.85;48.15;;;;;;;;;;8331180;28;20045;-74
2022/03/04 20:05:16;;;;;;;164.93;58.00;;;;;;;;;;8332549;28;20056;-74
2022/03/04 20:09:27;;;;;;;175.30;56.95;;;;;;;;;;8331803;28;20141;-74
2022/03/04 20:13:31;;;;;;;189.13;64.82;;;;;;;;;;8331545;28;20057;-74
2022/03/04 20:17:36;;;;;;;186.73;58.33;;;;;;;;;;8330869;28;20073;-76
2022/03/04 20:21:39;;;;;;;179.07;58.90;;;;;;;;;;8331240;28;20045;-74
2022/03/04 20:25:43;;;;;;;173.43;58.33;;;;;;;;;;8331007;28;20049;-73
2022/03/04 20:29:46;;;;;;;138.82;49.75;;;;;;;;;;8329112;28;20045;-74
2022/03/04 20:33:52;;;;;;;105.13;41.83;;;;;;;;;;8313321;28;20037;-79
2022/03/04 20:37:55;;;;;;;145.50;47.95;;;;;;;;;;8323398;28;20049;-75
2022/03/04 20:41:59;;;;;;;68.22;26.30;;;;;;;;;;8326300;28;20042;-74
2022/03/04 20:46:02;;;;;;;57.95;22.17;;;;;;;;;;8316255;28;20041;-74
2022/03/04 20:50:10;;;;;;;69.35;26.00;;;;;;;;;;8316528;28;20397;-74
2022/03/04 20:54:13;;;;;;;37.78;18.30;;;;;;;;;;8308757;28;20046;-74
2022/03/04 20:58:16;;;;;;;41.10;19.25;;;;;;;;;;8297811;28;20045;-74
2022/03/04 21:02:19;;;;;;;47.72;17.92;;;;;;;;;;8297854;28;20042;-74
2022/03/04 21:06:24;;;;;;;44.60;16.75;;;;;;;;;;8298146;28;20486;-75
2022/03/04 21:10:27;;;;;;;37.40;16.33;;;;;;;;;;8298050;28;20057;-75
2022/03/04 21:14:30;;;;;;;46.80;18.42;;;;;;;;;;8298143;28;20049;-74
2022/03/04 21:18:33;;;;;;;39.53;16.80;;;;;;;;;;8297776;28;20100;-75
2022/03/04 21:22:38;;;;;;;77.07;25.85;;;;;;;;;;8297828;28;20054;-75
2022/03/04 21:26:41;;;;;;;58.50;21.10;;;;;;;;;;8297482;28;20056;-74
2022/03/04 21:30:43;;;;;;;61.65;22.20;;;;;;;;;;8298540;28;20050;-75
2022/03/04 21:34:46;;;;;;;57.55;20.75;;;;;;;;;;8303673;28;20073;-75
2022/03/04 21:38:51;;;;;;;228.52;59.95;;;;;;;;;;8303428;28;20046;-74
2022/03/04 21:42:54;;;;;;;128.13;37.90;;;;;;;;;;8303755;28;20473;-75
2022/03/04 21:46:58;;;;;;;80.88;26.67;;;;;;;;;;8303728;28;20054;-75
2022/03/04 21:51:00;;;;;;;99.68;28.30;;;;;;;;;;8303529;28;20065;-75
2022/03/04 21:55:07;;;;;;;172.88;48.30;;;;;;;;;;8302980;28;20066;-75
2022/03/04 21:59:10;;;;;;;71.95;23.02;;;;;;;;;;8303442;28;20053;-75
2022/03/04 22:03:12;;;;;;;91.65;25.98;;;;;;;;;;8303216;28;20042;-75
2022/03/04 22:07:15;;;;;;;26.13;10.00;;;;;;;;;;8302573;28;20057;-75
2022/03/04 22:11:20;;;;;;;20.17;8.98;;;;;;;;;;8303030;28;20057;-75
2022/03/04 22:15:23;;;;;;;18.70;8.13;;;;;;;;;;8302519;28;20132;-75
2022/03/04 22:19:25;;;;;;;48.60;16.15;;;;;;;;;;8302901;28;20417;-75
2022/03/04 22:23:28;;;;;;;40.35;13.38;;;;;;;;;;8302698;28;20054;-74
2022/03/04 22:27:33;;;;;;;48.60;16.55;;;;;;;;;;8302445;28;20038;-75
2022/03/04 22:31:36;;;;;;;37.65;12.85;;;;;;;;;;8301998;28;20077;-75
2022/03/04 22:35:38;;;;;;;28.83;11.55;;;;;;;;;;8302440;28;20103;-75
2022/03/04 22:39:41;;;;;;;30.88;9.80;;;;;;;;;;8301656;28;20046;-79
2022/03/04 22:43:45;;;;;;;23.40;9.65;;;;;;;;;;8327615;28;20409;-75
2022/03/04 22:47:48;;;;;;;23.92;9.35;;;;;;;;;;8334758;28;20041;-79
2022/03/04 22:51:51;;;;;;;30.17;11.60;;;;;;;;;;8345378;28;20045;-74
2022/03/04 22:55:53;;;;;;;50.55;17.55;;;;;;;;;;8367411;28;20045;-74
2022/03/04 22:59:57;;;;;;;31.20;13.70;;;;;;;;;;8367120;28;20056;-75
2022/03/04 23:08:20;;;;;;;61.90;21.02;;;;;;;;;;8367153;28;20063;-74
2022/03/04 23:12:23;;;;;;;59.70;20.55;;;;;;;;;;8366491;28;20053;-75
2022/03/04 23:16:29;;;;;;;46.08;16.92;;;;;;;;;;8366803;28;20048;-74
2022/03/04 23:20:34;;;;;;;40.35;16.35;;;;;;;;;;8366783;28;20492;-75
2022/03/04 23:24:36;;;;;;;40.85;15.43;;;;;;;;;;8366516;28;20060;-74
2022/03/04 23:28:39;;;;;;;49.45;17.70;;;;;;;;;;8365865;28;20040;-74
2022/03/04 23:32:43;;;;;;;48.60;17.23;;;;;;;;;;8365833;28;20056;-75
2022/03/04 23:36:45;;;;;;;52.20;22.05;;;;;;;;;;8365622;28;20055;-74
2022/03/04 23:40:48;;;;;;;53.53;18.75;;;;;;;;;;8365494;28;20064;-74
2022/03/04 23:44:51;;;;;;;53.03;19.48;;;;;;;;;;8365464;28;20045;-74
2022/03/04 23:48:55;;;;;;;44.78;15.73;;;;;;;;;;8365006;28;20041;-75
2022/03/04 23:52:58;;;;;;;39.60;15.50;;;;;;;;;;8365074;28;20456;-75
2022/03/04 23:57:01;;;;;;;49.15;17.83;;;;;;;;;;8364934;28;20061;-74
